sensor_id;sensor_type;location;lat;lon;timestamp;P1;durP1;ratioP1;P2;durP2;ratioP2
70014;SDS011;57358;51.094;6.760;2022-08-19T00:01:25;7.57;;;6.97;;
70014;SDS011;57358;51.094;6.760;2022-08-19T00:03:56;8.20;;;7.32;;
70014;SDS011;57358;51.094;6.760;2022-08-19T00:06:27;7.80;;;7.20;;
70014;SDS011;57358;51.094;6.760;2022-08-19T00:08:55;9.13;;;7.47;;
70014;SDS011;57358;51.094;6.760;2022-08-19T00:11:28;8.20;;;7.45;;
70014;SDS011;57358;51.094;6.760;2022-08-19T00:13:55;7.38;;;6.82;;
70014;SDS011;57358;51.094;6.760;2022-08-19T00:16:25;8.13;;;7.43;;
70014;SDS011;57358;51.094;6.760;2022-08-19T00:18:54;7.82;;;7.28;;
70014;SDS011;57358;51.094;6.760;2022-08-19T00:21:24;8.82;;;7.95;;
70014;SDS011;57358;51.094;6.760;2022-08-19T00:23:53;8.05;;;7.43;;
70014;SDS011;57358;51.094;6.760;2022-08-19T00:26:20;8.20;;;7.60;;
70014;SDS011;57358;51.094;6.760;2022-08-19T00:28:47;8.02;;;7.32;;
70014;SDS011;57358;51.094;6.760;2022-08-19T00:31:14;8.07;;;7.47;;
70014;SDS011;57358;51.094;6.760;2022-08-19T00:33:42;8.27;;;7.65;;
70014;SDS011;57358;51.094;6.760;2022-08-19T00:36:09;9.18;;;8.32;;
70014;SDS011;57358;51.094;6.760;2022-08-19T00:38:37;7.55;;;6.95;;
70014;SDS011;57358;51.094;6.760;2022-08-19T00:41:09;8.80;;;8.20;;
70014;SDS011;57358;51.094;6.760;2022-08-19T00:43:42;9.77;;;8.38;;
70014;SDS011;57358;51.094;6.760;2022-08-19T00:46:09;10.60;;;9.23;;
70014;SDS011;57358;51.094;6.760;2022-08-19T00:48:35;9.35;;;8.50;;
70014;SDS011;57358;51.094;6.760;2022-08-19T00:51:03;9.90;;;8.88;;
70014;SDS011;57358;51.094;6.760;2022-08-19T00:53:34;9.50;;;8.60;;
70014;SDS011;57358;51.094;6.760;2022-08-19T00:56:01;10.07;;;9.07;;
70014;SDS011;57358;51.094;6.760;2022-08-19T00:58:32;8.38;;;7.53;;
70014;SDS011;57358;51.094;6.760;2022-08-19T01:01:00;8.80;;;8.10;;
70014;SDS011;57358;51.094;6.760;2022-08-19T01:03:28;9.15;;;7.57;;
70014;SDS011;57358;51.094;6.760;2022-08-19T01:06:15;10.60;;;9.60;;
70014;SDS011;57358;51.094;6.760;2022-08-19T01:08:49;8.98;;;8.18;;
70014;SDS011;57358;51.094;6.760;2022-08-19T01:11:15;9.52;;;8.73;;
70014;SDS011;57358;51.094;6.760;2022-08-19T01:13:42;8.88;;;8.07;;
70014;SDS011;57358;51.094;6.760;2022-08-19T01:16:15;8.95;;;8.20;;
70014;SDS011;57358;51.094;6.760;2022-08-19T01:18:46;7.75;;;7.15;;
70014;SDS011;57358;51.094;6.760;2022-08-19T01:21:18;10.25;;;9.35;;
70014;SDS011;57358;51.094;6.760;2022-08-19T01:23:50;8.13;;;7.38;;
70014;SDS011;57358;51.094;6.760;2022-08-19T01:26:20;10.23;;;9.45;;
70014;SDS011;57358;51.094;6.760;2022-08-19T01:28:50;8.68;;;7.95;;
70014;SDS011;57358;51.094;6.760;2022-08-19T01:31:25;8.32;;;7.63;;
70014;SDS011;57358;51.094;6.760;2022-08-19T01:33:59;9.38;;;8.57;;
70014;SDS011;57358;51.094;6.760;2022-08-19T01:36:30;8.25;;;7.60;;
70014;SDS011;57358;51.094;6.760;2022-08-19T01:39:05;9.25;;;8.48;;
70014;SDS011;57358;51.094;6.760;2022-08-19T01:41:34;7.72;;;7.13;;
70014;SDS011;57358;51.094;6.760;2022-08-19T01:44:01;9.07;;;8.32;;
70014;SDS011;57358;51.094;6.760;2022-08-19T01:46:44;9.20;;;8.40;;
70014;SDS011;57358;51.094;6.760;2022-08-19T01:49:13;10.02;;;9.23;;
70014;SDS011;57358;51.094;6.760;2022-08-19T01:51:40;8.55;;;7.85;;
70014;SDS011;57358;51.094;6.760;2022-08-19T01:54:08;9.43;;;8.73;;
70014;SDS011;57358;51.094;6.760;2022-08-19T01:56:35;8.85;;;8.10;;
70014;SDS011;57358;51.094;6.760;2022-08-19T01:59:03;9.00;;;8.30;;
70014;SDS011;57358;51.094;6.760;2022-08-19T02:01:33;8.55;;;7.90;;
70014;SDS011;57358;51.094;6.760;2022-08-19T02:04:00;9.80;;;8.93;;
70014;SDS011;57358;51.094;6.760;2022-08-19T02:06:30;9.25;;;8.48;;
70014;SDS011;57358;51.094;6.760;2022-08-19T02:08:56;8.88;;;8.05;;
70014;SDS011;57358;51.094;6.760;2022-08-19T02:11:24;8.95;;;8.20;;
70014;SDS011;57358;51.094;6.760;2022-08-19T02:14:00;12.50;;;8.80;;
70014;SDS011;57358;51.094;6.760;2022-08-19T02:16:29;8.18;;;7.50;;
70014;SDS011;57358;51.094;6.760;2022-08-19T02:18:57;10.50;;;9.25;;
70014;SDS011;57358;51.094;6.760;2022-08-19T02:21:31;9.70;;;8.80;;
70014;SDS011;57358;51.094;6.760;2022-08-19T02:23:58;8.95;;;8.13;;
70014;SDS011;57358;51.094;6.760;2022-08-19T02:26:24;9.38;;;8.48;;
70014;SDS011;57358;51.094;6.760;2022-08-19T02:28:53;10.02;;;9.05;;
70014;SDS011;57358;51.094;6.760;2022-08-19T02:31:22;9.73;;;8.60;;
70014;SDS011;57358;51.094;6.760;2022-08-19T02:33:51;9.45;;;8.45;;
70014;SDS011;57358;51.094;6.760;2022-08-19T02:36:22;10.05;;;9.13;;
70014;SDS011;57358;51.094;6.760;2022-08-19T02:38:50;8.65;;;7.88;;
70014;SDS011;57358;51.094;6.760;2022-08-19T02:41:23;8.88;;;8.07;;
70014;SDS011;57358;51.094;6.760;2022-08-19T02:43:53;9.02;;;7.97;;
70014;SDS011;57358;51.094;6.760;2022-08-19T02:46:47;8.65;;;7.93;;
70014;SDS011;57358;51.094;6.760;2022-08-19T02:49:15;10.07;;;9.23;;
70014;SDS011;57358;51.094;6.760;2022-08-19T02:51:43;10.50;;;9.48;;
70014;SDS011;57358;51.094;6.760;2022-08-19T02:54:12;10.00;;;9.20;;
70014;SDS011;57358;51.094;6.760;2022-08-19T02:56:41;10.18;;;9.18;;
70014;SDS011;57358;51.094;6.760;2022-08-19T02:59:09;10.95;;;9.95;;
70014;SDS011;57358;51.094;6.760;2022-08-19T03:01:37;11.68;;;9.02;;
70014;SDS011;57358;51.094;6.760;2022-08-19T03:04:07;11.40;;;10.40;;
70014;SDS011;57358;51.094;6.760;2022-08-19T03:06:39;10.07;;;9.07;;
70014;SDS011;57358;51.094;6.760;2022-08-19T03:09:07;9.68;;;8.80;;
70014;SDS011;57358;51.094;6.760;2022-08-19T03:11:34;8.88;;;8.05;;
70014;SDS011;57358;51.094;6.760;2022-08-19T03:14:01;9.07;;;8.40;;
70014;SDS011;57358;51.094;6.760;2022-08-19T03:16:31;9.93;;;8.98;;
70014;SDS011;57358;51.094;6.760;2022-08-19T03:19:02;9.70;;;8.80;;
70014;SDS011;57358;51.094;6.760;2022-08-19T03:21:30;8.60;;;7.82;;
70014;SDS011;57358;51.094;6.760;2022-08-19T03:24:03;9.02;;;8.23;;
70014;SDS011;57358;51.094;6.760;2022-08-19T03:26:34;10.68;;;9.52;;
70014;SDS011;57358;51.094;6.760;2022-08-19T03:29:04;10.77;;;9.32;;
70014;SDS011;57358;51.094;6.760;2022-08-19T03:31:33;9.52;;;8.65;;
70014;SDS011;57358;51.094;6.760;2022-08-19T03:34:33;11.45;;;10.35;;
70014;SDS011;57358;51.094;6.760;2022-08-19T03:37:02;11.63;;;10.48;;
70014;SDS011;57358;51.094;6.760;2022-08-19T03:39:41;9.90;;;9.00;;
70014;SDS011;57358;51.094;6.760;2022-08-19T03:42:08;12.40;;;10.63;;
70014;SDS011;57358;51.094;6.760;2022-08-19T03:44:55;10.45;;;9.45;;
70014;SDS011;57358;51.094;6.760;2022-08-19T03:47:28;13.82;;;9.90;;
70014;SDS011;57358;51.094;6.760;2022-08-19T03:49:59;14.93;;;10.60;;
70014;SDS011;57358;51.094;6.760;2022-08-19T03:52:26;12.55;;;11.25;;
70014;SDS011;57358;51.094;6.760;2022-08-19T03:54:52;13.93;;;10.57;;
70014;SDS011;57358;51.094;6.760;2022-08-19T03:57:19;12.27;;;10.30;;
70014;SDS011;57358;51.094;6.760;2022-08-19T03:59:49;11.80;;;10.63;;
70014;SDS011;57358;51.094;6.760;2022-08-19T04:02:16;12.23;;;11.05;;
70014;SDS011;57358;51.094;6.760;2022-08-19T04:04:43;33.28;;;11.05;;
70014;SDS011;57358;51.094;6.760;2022-08-19T04:07:10;15.13;;;11.88;;
70014;SDS011;57358;51.094;6.760;2022-08-19T04:09:41;19.13;;;10.73;;
70014;SDS011;57358;51.094;6.760;2022-08-19T04:12:08;15.23;;;12.63;;
70014;SDS011;57358;51.094;6.760;2022-08-19T04:14:36;12.45;;;10.77;;
70014;SDS011;57358;51.094;6.760;2022-08-19T04:17:05;13.05;;;11.70;;
70014;SDS011;57358;51.094;6.760;2022-08-19T04:19:33;12.27;;;8.90;;
70014;SDS011;57358;51.094;6.760;2022-08-19T04:22:01;13.85;;;10.95;;
70014;SDS011;57358;51.094;6.760;2022-08-19T04:24:31;12.60;;;10.52;;
70014;SDS011;57358;51.094;6.760;2022-08-19T04:26:59;11.13;;;9.65;;
70014;SDS011;57358;51.094;6.760;2022-08-19T04:29:27;10.77;;;9.27;;
70014;SDS011;57358;51.094;6.760;2022-08-19T04:31:54;13.43;;;10.02;;
70014;SDS011;57358;51.094;6.760;2022-08-19T04:34:23;10.38;;;9.38;;
70014;SDS011;57358;51.094;6.760;2022-08-19T04:36:52;10.02;;;8.95;;
70014;SDS011;57358;51.094;6.760;2022-08-19T04:39:21;11.35;;;10.15;;
70014;SDS011;57358;51.094;6.760;2022-08-19T04:42:10;12.55;;;10.80;;
70014;SDS011;57358;51.094;6.760;2022-08-19T04:44:59;11.13;;;9.93;;
70014;SDS011;57358;51.094;6.760;2022-08-19T04:47:26;11.45;;;9.65;;
70014;SDS011;57358;51.094;6.760;2022-08-19T04:50:13;12.25;;;10.30;;
70014;SDS011;57358;51.094;6.760;2022-08-19T04:52:40;14.35;;;10.68;;
70014;SDS011;57358;51.094;6.760;2022-08-19T04:55:09;13.00;;;11.68;;
70014;SDS011;57358;51.094;6.760;2022-08-19T04:57:36;17.35;;;11.15;;
70014;SDS011;57358;51.094;6.760;2022-08-19T05:00:07;16.40;;;12.50;;
70014;SDS011;57358;51.094;6.760;2022-08-19T05:02:34;11.57;;;9.80;;
70014;SDS011;57358;51.094;6.760;2022-08-19T05:05:01;14.45;;;13.00;;
70014;SDS011;57358;51.094;6.760;2022-08-19T05:07:27;12.82;;;10.80;;
70014;SDS011;57358;51.094;6.760;2022-08-19T05:09:55;15.70;;;12.05;;
70014;SDS011;57358;51.094;6.760;2022-08-19T05:12:24;16.75;;;12.52;;
70014;SDS011;57358;51.094;6.760;2022-08-19T05:14:54;13.95;;;11.48;;
70014;SDS011;57358;51.094;6.760;2022-08-19T05:17:23;14.73;;;12.15;;
70014;SDS011;57358;51.094;6.760;2022-08-19T05:19:53;19.67;;;11.77;;
70014;SDS011;57358;51.094;6.760;2022-08-19T05:22:39;14.70;;;13.20;;
70014;SDS011;57358;51.094;6.760;2022-08-19T05:25:08;16.23;;;13.68;;
70014;SDS011;57358;51.094;6.760;2022-08-19T05:27:40;14.43;;;10.27;;
70014;SDS011;57358;51.094;6.760;2022-08-19T05:30:07;14.65;;;12.98;;
70014;SDS011;57358;51.094;6.760;2022-08-19T05:32:35;11.38;;;9.75;;
70014;SDS011;57358;51.094;6.760;2022-08-19T05:35:02;18.85;;;15.23;;
70014;SDS011;57358;51.094;6.760;2022-08-19T05:37:29;20.48;;;13.90;;
70014;SDS011;57358;51.094;6.760;2022-08-19T05:39:56;15.68;;;12.95;;
70014;SDS011;57358;51.094;6.760;2022-08-19T05:42:23;20.08;;;14.50;;
70014;SDS011;57358;51.094;6.760;2022-08-19T05:44:52;14.23;;;11.75;;
70014;SDS011;57358;51.094;6.760;2022-08-19T05:47:18;15.10;;;11.70;;
70014;SDS011;57358;51.094;6.760;2022-08-19T05:49:46;16.90;;;12.93;;
70014;SDS011;57358;51.094;6.760;2022-08-19T05:52:13;15.63;;;11.52;;
70014;SDS011;57358;51.094;6.760;2022-08-19T05:54:44;21.42;;;14.52;;
70014;SDS011;57358;51.094;6.760;2022-08-19T05:57:16;28.48;;;16.55;;
70014;SDS011;57358;51.094;6.760;2022-08-19T05:59:44;17.85;;;12.15;;
70014;SDS011;57358;51.094;6.760;2022-08-19T06:02:14;16.02;;;13.90;;
70014;SDS011;57358;51.094;6.760;2022-08-19T06:04:40;16.83;;;12.48;;
70014;SDS011;57358;51.094;6.760;2022-08-19T06:07:10;17.17;;;15.23;;
70014;SDS011;57358;51.094;6.760;2022-08-19T06:09:38;13.55;;;11.48;;
70014;SDS011;57358;51.094;6.760;2022-08-19T06:12:05;16.08;;;12.57;;
70014;SDS011;57358;51.094;6.760;2022-08-19T06:14:33;17.30;;;12.55;;
70014;SDS011;57358;51.094;6.760;2022-08-19T06:17:07;16.23;;;14.02;;
70014;SDS011;57358;51.094;6.760;2022-08-19T06:19:34;20.15;;;13.48;;
70014;SDS011;57358;51.094;6.760;2022-08-19T06:22:06;16.33;;;14.40;;
70014;SDS011;57358;51.094;6.760;2022-08-19T06:24:34;13.30;;;11.27;;
70014;SDS011;57358;51.094;6.760;2022-08-19T06:27:01;15.80;;;12.50;;
70014;SDS011;57358;51.094;6.760;2022-08-19T06:29:31;14.25;;;12.52;;
70014;SDS011;57358;51.094;6.760;2022-08-19T06:31:59;17.33;;;12.70;;
70014;SDS011;57358;51.094;6.760;2022-08-19T06:34:29;18.10;;;15.25;;
70014;SDS011;57358;51.094;6.760;2022-08-19T06:36:58;15.43;;;12.40;;
70014;SDS011;57358;51.094;6.760;2022-08-19T06:39:29;11.25;;;10.25;;
70014;SDS011;57358;51.094;6.760;2022-08-19T06:42:00;22.00;;;19.60;;
70014;SDS011;57358;51.094;6.760;2022-08-19T06:44:30;17.13;;;11.52;;
70014;SDS011;57358;51.094;6.760;2022-08-19T06:47:07;14.38;;;12.90;;
70014;SDS011;57358;51.094;6.760;2022-08-19T06:49:49;13.68;;;10.82;;
70014;SDS011;57358;51.094;6.760;2022-08-19T06:52:15;12.40;;;11.30;;
70014;SDS011;57358;51.094;6.760;2022-08-19T06:54:42;15.02;;;12.35;;
70014;SDS011;57358;51.094;6.760;2022-08-19T06:57:22;11.73;;;10.10;;
70014;SDS011;57358;51.094;6.760;2022-08-19T06:59:49;15.88;;;11.98;;
70014;SDS011;57358;51.094;6.760;2022-08-19T07:02:15;18.58;;;12.93;;
70014;SDS011;57358;51.094;6.760;2022-08-19T07:04:42;14.75;;;11.93;;
70014;SDS011;57358;51.094;6.760;2022-08-19T07:07:10;21.73;;;13.73;;
70014;SDS011;57358;51.094;6.760;2022-08-19T07:09:46;22.65;;;13.45;;
70014;SDS011;57358;51.094;6.760;2022-08-19T07:12:25;16.25;;;11.77;;
70014;SDS011;57358;51.094;6.760;2022-08-19T07:14:56;21.60;;;14.85;;
70014;SDS011;57358;51.094;6.760;2022-08-19T07:17:24;17.20;;;13.55;;
70014;SDS011;57358;51.094;6.760;2022-08-19T07:19:51;24.40;;;13.35;;
70014;SDS011;57358;51.094;6.760;2022-08-19T07:22:19;18.88;;;14.38;;
70014;SDS011;57358;51.094;6.760;2022-08-19T07:24:49;22.50;;;15.05;;
70014;SDS011;57358;51.094;6.760;2022-08-19T07:27:16;16.75;;;13.55;;
70014;SDS011;57358;51.094;6.760;2022-08-19T07:29:50;19.95;;;13.90;;
70014;SDS011;57358;51.094;6.760;2022-08-19T07:32:23;21.20;;;13.68;;
70014;SDS011;57358;51.094;6.760;2022-08-19T07:34:52;24.02;;;14.85;;
70014;SDS011;57358;51.094;6.760;2022-08-19T07:37:19;32.17;;;13.98;;
70014;SDS011;57358;51.094;6.760;2022-08-19T07:39:45;25.98;;;14.93;;
70014;SDS011;57358;51.094;6.760;2022-08-19T07:42:12;28.45;;;14.68;;
70014;SDS011;57358;51.094;6.760;2022-08-19T07:44:39;23.95;;;15.13;;
70014;SDS011;57358;51.094;6.760;2022-08-19T07:47:07;19.67;;;15.18;;
70014;SDS011;57358;51.094;6.760;2022-08-19T07:49:53;25.30;;;16.15;;
70014;SDS011;57358;51.094;6.760;2022-08-19T07:52:20;28.42;;;14.68;;
70014;SDS011;57358;51.094;6.760;2022-08-19T07:54:46;23.10;;;15.52;;
70014;SDS011;57358;51.094;6.760;2022-08-19T07:57:13;31.65;;;17.08;;
70014;SDS011;57358;51.094;6.760;2022-08-19T07:59:39;24.27;;;14.07;;
70014;SDS011;57358;51.094;6.760;2022-08-19T08:02:06;23.20;;;15.98;;
70014;SDS011;57358;51.094;6.760;2022-08-19T08:04:34;20.98;;;14.05;;
70014;SDS011;57358;51.094;6.760;2022-08-19T08:07:20;22.88;;;14.27;;
70014;SDS011;57358;51.094;6.760;2022-08-19T08:10:11;23.15;;;16.35;;
70014;SDS011;57358;51.094;6.760;2022-08-19T08:12:46;23.10;;;14.45;;
70014;SDS011;57358;51.094;6.760;2022-08-19T08:15:33;22.10;;;14.98;;
70014;SDS011;57358;51.094;6.760;2022-08-19T08:18:06;20.38;;;15.07;;
70014;SDS011;57358;51.094;6.760;2022-08-19T08:20:34;20.23;;;14.60;;
70014;SDS011;57358;51.094;6.760;2022-08-19T08:23:01;20.92;;;13.35;;
70014;SDS011;57358;51.094;6.760;2022-08-19T08:25:46;20.00;;;14.15;;
70014;SDS011;57358;51.094;6.760;2022-08-19T08:28:15;23.00;;;16.08;;
70014;SDS011;57358;51.094;6.760;2022-08-19T08:30:43;16.60;;;13.10;;
70014;SDS011;57358;51.094;6.760;2022-08-19T08:33:11;19.10;;;14.98;;
70014;SDS011;57358;51.094;6.760;2022-08-19T08:35:39;24.95;;;15.43;;
70014;SDS011;57358;51.094;6.760;2022-08-19T08:38:08;18.15;;;13.88;;
70014;SDS011;57358;51.094;6.760;2022-08-19T08:40:39;17.15;;;12.95;;
70014;SDS011;57358;51.094;6.760;2022-08-19T08:43:20;16.75;;;13.57;;
70014;SDS011;57358;51.094;6.760;2022-08-19T08:46:15;18.20;;;12.60;;
70014;SDS011;57358;51.094;6.760;2022-08-19T08:49:11;21.30;;;13.90;;
70014;SDS011;57358;51.094;6.760;2022-08-19T08:52:03;18.05;;;13.25;;
70014;SDS011;57358;51.094;6.760;2022-08-19T08:54:39;17.40;;;13.13;;
70014;SDS011;57358;51.094;6.760;2022-08-19T09:00:12;17.52;;;15.00;;
70014;SDS011;57358;51.094;6.760;2022-08-19T09:02:43;16.70;;;12.40;;
70014;SDS011;57358;51.094;6.760;2022-08-19T09:05:15;18.85;;;13.25;;
70014;SDS011;57358;51.094;6.760;2022-08-19T09:08:04;18.40;;;12.55;;
70014;SDS011;57358;51.094;6.760;2022-08-19T09:10:49;15.13;;;11.82;;
70014;SDS011;57358;51.094;6.760;2022-08-19T09:13:24;13.85;;;10.50;;
70014;SDS011;57358;51.094;6.760;2022-08-19T09:16:05;13.82;;;12.20;;
70014;SDS011;57358;51.094;6.760;2022-08-19T09:21:20;17.38;;;11.50;;
70014;SDS011;57358;51.094;6.760;2022-08-19T09:23:58;14.13;;;10.63;;
70014;SDS011;57358;51.094;6.760;2022-08-19T09:26:25;11.02;;;9.50;;
70014;SDS011;57358;51.094;6.760;2022-08-19T09:29:12;14.02;;;11.55;;
70014;SDS011;57358;51.094;6.760;2022-08-19T09:31:39;10.57;;;9.50;;
70014;SDS011;57358;51.094;6.760;2022-08-19T09:34:05;12.50;;;11.20;;
70014;SDS011;57358;51.094;6.760;2022-08-19T09:36:47;13.70;;;10.60;;
70014;SDS011;57358;51.094;6.760;2022-08-19T09:39:19;11.10;;;9.30;;
70014;SDS011;57358;51.094;6.760;2022-08-19T09:41:46;10.27;;;9.20;;
70014;SDS011;57358;51.094;6.760;2022-08-19T09:44:14;10.70;;;9.60;;
70014;SDS011;57358;51.094;6.760;2022-08-19T09:46:40;11.40;;;9.80;;
70014;SDS011;57358;51.094;6.760;2022-08-19T09:49:07;13.73;;;11.95;;
70014;SDS011;57358;51.094;6.760;2022-08-19T09:51:34;12.30;;;10.07;;
70014;SDS011;57358;51.094;6.760;2022-08-19T09:54:01;9.93;;;9.02;;
70014;SDS011;57358;51.094;6.760;2022-08-19T09:56:30;12.55;;;9.77;;
70014;SDS011;57358;51.094;6.760;2022-08-19T09:58:59;9.80;;;8.80;;
70014;SDS011;57358;51.094;6.760;2022-08-19T10:01:28;10.40;;;9.15;;
70014;SDS011;57358;51.094;6.760;2022-08-19T10:03:57;9.65;;;8.45;;
70014;SDS011;57358;51.094;6.760;2022-08-19T10:06:39;10.07;;;9.07;;
70014;SDS011;57358;51.094;6.760;2022-08-19T10:09:12;11.48;;;9.55;;
70014;SDS011;57358;51.094;6.760;2022-08-19T10:11:42;9.07;;;8.27;;
70014;SDS011;57358;51.094;6.760;2022-08-19T10:14:20;9.93;;;8.00;;
70014;SDS011;57358;51.094;6.760;2022-08-19T10:16:51;12.02;;;8.93;;
70014;SDS011;57358;51.094;6.760;2022-08-19T10:19:23;9.18;;;8.38;;
70014;SDS011;57358;51.094;6.760;2022-08-19T10:21:52;10.38;;;9.35;;
70014;SDS011;57358;51.094;6.760;2022-08-19T10:24:25;9.70;;;8.82;;
70014;SDS011;57358;51.094;6.760;2022-08-19T10:26:53;10.18;;;9.15;;
70014;SDS011;57358;51.094;6.760;2022-08-19T10:29:24;10.32;;;9.32;;
70014;SDS011;57358;51.094;6.760;2022-08-19T10:31:59;10.50;;;9.38;;
70014;SDS011;57358;51.094;6.760;2022-08-19T10:34:35;9.35;;;8.48;;
70014;SDS011;57358;51.094;6.760;2022-08-19T10:37:14;11.45;;;9.20;;
70014;SDS011;57358;51.094;6.760;2022-08-19T10:39:49;13.38;;;9.77;;
70014;SDS011;57358;51.094;6.760;2022-08-19T10:42:19;11.30;;;10.32;;
70014;SDS011;57358;51.094;6.760;2022-08-19T10:44:49;11.10;;;9.98;;
70014;SDS011;57358;51.094;6.760;2022-08-19T10:47:19;11.13;;;9.95;;
70014;SDS011;57358;51.094;6.760;2022-08-19T10:49:56;17.40;;;9.32;;
70014;SDS011;57358;51.094;6.760;2022-08-19T10:52:46;9.40;;;8.50;;
70014;SDS011;57358;51.094;6.760;2022-08-19T10:55:20;10.55;;;9.45;;
70014;SDS011;57358;51.094;6.760;2022-08-19T10:58:13;11.70;;;10.32;;
70014;SDS011;57358;51.094;6.760;2022-08-19T11:00:42;11.25;;;8.57;;
70014;SDS011;57358;51.094;6.760;2022-08-19T11:03:16;13.35;;;9.00;;
70014;SDS011;57358;51.094;6.760;2022-08-19T11:05:44;10.40;;;9.30;;
70014;SDS011;57358;51.094;6.760;2022-08-19T11:08:11;10.90;;;9.90;;
70014;SDS011;57358;51.094;6.760;2022-08-19T11:10:49;8.65;;;7.82;;
70014;SDS011;57358;51.094;6.760;2022-08-19T11:13:17;10.20;;;9.27;;
70014;SDS011;57358;51.094;6.760;2022-08-19T11:15:43;8.60;;;7.78;;
70014;SDS011;57358;51.094;6.760;2022-08-19T11:18:11;10.02;;;9.23;;
70014;SDS011;57358;51.094;6.760;2022-08-19T11:20:38;9.95;;;8.00;;
70014;SDS011;57358;51.094;6.760;2022-08-19T11:23:05;10.23;;;9.40;;
70014;SDS011;57358;51.094;6.760;2022-08-19T11:25:32;9.15;;;8.18;;
70014;SDS011;57358;51.094;6.760;2022-08-19T11:27:59;9.00;;;8.30;;
70014;SDS011;57358;51.094;6.760;2022-08-19T11:30:25;8.30;;;7.70;;
70014;SDS011;57358;51.094;6.760;2022-08-19T11:32:55;9.40;;;8.50;;
70014;SDS011;57358;51.094;6.760;2022-08-19T11:35:21;9.07;;;8.27;;
70014;SDS011;57358;51.094;6.760;2022-08-19T11:37:49;8.57;;;7.88;;
70014;SDS011;57358;51.094;6.760;2022-08-19T11:40:16;9.80;;;8.85;;
70014;SDS011;57358;51.094;6.760;2022-08-19T11:42:42;8.98;;;8.07;;
70014;SDS011;57358;51.094;6.760;2022-08-19T11:45:25;10.02;;;8.38;;
70014;SDS011;57358;51.094;6.760;2022-08-19T11:47:53;8.45;;;7.75;;
70014;SDS011;57358;51.094;6.760;2022-08-19T11:50:40;9.18;;;8.35;;
70014;SDS011;57358;51.094;6.760;2022-08-19T11:53:11;9.18;;;8.38;;
70014;SDS011;57358;51.094;6.760;2022-08-19T11:55:38;9.20;;;8.40;;
70014;SDS011;57358;51.094;6.760;2022-08-19T11:58:09;10.60;;;9.63;;
70014;SDS011;57358;51.094;6.760;2022-08-19T12:00:44;9.13;;;8.32;;
70014;SDS011;57358;51.094;6.760;2022-08-19T12:03:12;10.50;;;9.60;;
70014;SDS011;57358;51.094;6.760;2022-08-19T12:05:39;10.23;;;8.85;;
70014;SDS011;57358;51.094;6.760;2022-08-19T12:08:06;10.40;;;9.55;;
70014;SDS011;57358;51.094;6.760;2022-08-19T12:10:35;9.20;;;8.00;;
70014;SDS011;57358;51.094;6.760;2022-08-19T12:13:02;11.05;;;10.05;;
70014;SDS011;57358;51.094;6.760;2022-08-19T12:15:29;10.75;;;8.77;;
70014;SDS011;57358;51.094;6.760;2022-08-19T12:18:02;9.75;;;8.75;;
70014;SDS011;57358;51.094;6.760;2022-08-19T12:20:30;10.20;;;9.10;;
70014;SDS011;57358;51.094;6.760;2022-08-19T12:23:01;10.15;;;9.07;;
70014;SDS011;57358;51.094;6.760;2022-08-19T12:25:28;9.55;;;8.00;;
70014;SDS011;57358;51.094;6.760;2022-08-19T12:27:55;10.38;;;7.82;;
70014;SDS011;57358;51.094;6.760;2022-08-19T12:30:23;8.48;;;7.78;;
70014;SDS011;57358;51.094;6.760;2022-08-19T12:32:49;9.18;;;8.38;;
70014;SDS011;57358;51.094;6.760;2022-08-19T12:35:17;9.48;;;8.77;;
70014;SDS011;57358;51.094;6.760;2022-08-19T12:37:47;8.18;;;7.43;;
70014;SDS011;57358;51.094;6.760;2022-08-19T12:40:22;11.65;;;8.73;;
70014;SDS011;57358;51.094;6.760;2022-08-19T12:42:51;7.90;;;7.30;;
70014;SDS011;57358;51.094;6.760;2022-08-19T12:45:18;7.55;;;6.95;;
70014;SDS011;57358;51.094;6.760;2022-08-19T12:47:46;8.30;;;7.50;;
70014;SDS011;57358;51.094;6.760;2022-08-19T12:50:14;9.27;;;8.57;;
70014;SDS011;57358;51.094;6.760;2022-08-19T12:52:43;8.50;;;7.70;;
70014;SDS011;57358;51.094;6.760;2022-08-19T12:55:10;9.60;;;8.70;;
70014;SDS011;57358;51.094;6.760;2022-08-19T12:57:37;8.75;;;7.40;;
70014;SDS011;57358;51.094;6.760;2022-08-19T13:00:05;9.45;;;8.75;;
70014;SDS011;57358;51.094;6.760;2022-08-19T13:02:37;8.05;;;7.35;;
70014;SDS011;57358;51.094;6.760;2022-08-19T13:05:05;9.05;;;8.15;;
70014;SDS011;57358;51.094;6.760;2022-08-19T13:07:36;8.20;;;7.60;;
70014;SDS011;57358;51.094;6.760;2022-08-19T13:10:08;9.38;;;8.63;;
70014;SDS011;57358;51.094;6.760;2022-08-19T13:12:35;9.13;;;7.55;;
70014;SDS011;57358;51.094;6.760;2022-08-19T13:15:02;9.45;;;8.55;;
70014;SDS011;57358;51.094;6.760;2022-08-19T13:17:36;7.80;;;7.20;;
70014;SDS011;57358;51.094;6.760;2022-08-19T13:20:04;8.95;;;8.35;;
70014;SDS011;57358;51.094;6.760;2022-08-19T13:22:33;7.53;;;7.03;;
70014;SDS011;57358;51.094;6.760;2022-08-19T13:25:04;8.90;;;8.15;;
70014;SDS011;57358;51.094;6.760;2022-08-19T13:27:31;7.80;;;7.10;;
70014;SDS011;57358;51.094;6.760;2022-08-19T13:30:03;7.47;;;6.97;;
70014;SDS011;57358;51.094;6.760;2022-08-19T13:32:52;7.45;;;6.95;;
70014;SDS011;57358;51.094;6.760;2022-08-19T13:35:38;7.68;;;7.10;;
70014;SDS011;57358;51.094;6.760;2022-08-19T13:38:06;9.43;;;8.60;;
70014;SDS011;57358;51.094;6.760;2022-08-19T13:40:37;8.27;;;7.47;;
70014;SDS011;57358;51.094;6.760;2022-08-19T13:43:06;8.52;;;7.90;;
70014;SDS011;57358;51.094;6.760;2022-08-19T13:45:51;7.40;;;6.90;;
70014;SDS011;57358;51.094;6.760;2022-08-19T13:48:21;7.40;;;6.90;;
70014;SDS011;57358;51.094;6.760;2022-08-19T13:50:49;7.60;;;7.05;;
70014;SDS011;57358;51.094;6.760;2022-08-19T13:53:16;8.10;;;7.57;;
70014;SDS011;57358;51.094;6.760;2022-08-19T13:55:44;6.88;;;6.47;;
70014;SDS011;57358;51.094;6.760;2022-08-19T13:58:10;8.65;;;8.07;;
70014;SDS011;57358;51.094;6.760;2022-08-19T14:00:42;6.95;;;6.47;;
70014;SDS011;57358;51.094;6.760;2022-08-19T14:03:10;8.48;;;7.88;;
70014;SDS011;57358;51.094;6.760;2022-08-19T14:05:39;7.30;;;6.80;;
70014;SDS011;57358;51.094;6.760;2022-08-19T14:08:06;8.52;;;7.97;;
70014;SDS011;57358;51.094;6.760;2022-08-19T14:10:33;6.93;;;6.53;;
70014;SDS011;57358;51.094;6.760;2022-08-19T14:13:00;7.40;;;6.90;;
70014;SDS011;57358;51.094;6.760;2022-08-19T14:15:28;7.45;;;6.95;;
70014;SDS011;57358;51.094;6.760;2022-08-19T14:17:55;6.40;;;6.10;;
70014;SDS011;57358;51.094;6.760;2022-08-19T14:20:22;7.30;;;6.70;;
70014;SDS011;57358;51.094;6.760;2022-08-19T14:22:51;7.25;;;6.68;;
70014;SDS011;57358;51.094;6.760;2022-08-19T14:25:20;7.18;;;6.78;;
70014;SDS011;57358;51.094;6.760;2022-08-19T14:27:53;6.95;;;6.55;;
70014;SDS011;57358;51.094;6.760;2022-08-19T14:30:31;7.45;;;6.95;;
70014;SDS011;57358;51.094;6.760;2022-08-19T14:33:16;6.65;;;6.25;;
70014;SDS011;57358;51.094;6.760;2022-08-19T14:35:55;7.25;;;6.70;;
70014;SDS011;57358;51.094;6.760;2022-08-19T14:38:25;7.00;;;6.60;;
70014;SDS011;57358;51.094;6.760;2022-08-19T14:41:07;6.80;;;6.40;;
70014;SDS011;57358;51.094;6.760;2022-08-19T14:43:39;6.85;;;6.40;;
70014;SDS011;57358;51.094;6.760;2022-08-19T14:46:06;7.65;;;7.25;;
70014;SDS011;57358;51.094;6.760;2022-08-19T14:48:36;6.90;;;6.40;;
70014;SDS011;57358;51.094;6.760;2022-08-19T14:51:06;7.82;;;7.35;;
70014;SDS011;57358;51.094;6.760;2022-08-19T14:53:33;6.38;;;6.00;;
70014;SDS011;57358;51.094;6.760;2022-08-19T14:56:00;7.22;;;6.55;;
70014;SDS011;57358;51.094;6.760;2022-08-19T14:58:27;7.32;;;6.82;;
70014;SDS011;57358;51.094;6.760;2022-08-19T15:00:56;6.50;;;6.10;;
70014;SDS011;57358;51.094;6.760;2022-08-19T15:03:27;7.05;;;6.50;;